Portada
METAR-TAF:

METAR-TAF

Aeroports :

Summerville, Carolina del Sud, Estats Units d'Amèrica

latitud: 33-03-48N, longitud: 080-16-46W, altitud: 17 m

Observació

L'informe es va fer fa 11 minuts, a les 13:35 UTC
Vent calma
Temperatura 9°C
Humitat 93%
Pressió 1011 hPa
Visibilitat: 12.9 km
Cel cobert a una alçada de 1200 ft

METAR: KDYB 191335Z AUTO 00000KT 8SM OVC012 09/08 A2984 RMK AO2

Hora: 08:46 (13:46 UTC)


TAF: manca

Observacions i pronòstics meteorològics de més de 4000 aeroports (METAR i TAF).

Les estacions disponibles són els punts grocs i vermells al mapa.

Posi el ratolí al punt desitjat per veure el nom de l'estació.

Feu clic per veure les observacions i els pronòstics meteorològics.

Per canviar el mapa: feu clic els botons verds amb una creu de color negre per apropar; al botó verd amb un guió per allunyar la imatge; o en les fletxes verdes per a mapes adjacents.


METAR-TAF: